Time;durP1;ratioP1;P1;durP2;ratioP2;P2;SDS_P1;SDS_P2;PMS_P1;PMS_P2;Temp;Humidity;BMP_temperature;BMP_pressure;BME280_temperature;BME280_humidity;BME280_pressure;Samples;Min_cycle;Max_cycle;Signal;HPM_P1;HPM_P2
2023/08/14 00:00:35;;;;;;;8.17;7.30;;;21.60;39.30;;;;;;5046416;28;20472;-70
2023/08/14 00:03:02;;;;;;;15.87;7.83;;;21.60;39.50;;;;;;5043573;28;20473;-70
2023/08/14 00:05:30;;;;;;;7.97;7.17;;;21.50;39.60;;;;;;5047495;28;20472;-70
2023/08/14 00:07:56;;;;;;;44.47;8.10;;;21.50;39.50;;;;;;5041052;28;21738;-70
2023/08/14 00:10:23;;;;;;;8.30;7.47;;;21.50;39.50;;;;;;5047006;28;20469;-70
2023/08/14 00:12:50;;;;;;;9.50;7.47;;;21.40;39.60;;;;;;5045733;28;20462;-70
2023/08/14 00:15:16;;;;;;;8.00;7.20;;;21.40;39.50;;;;;;5046957;28;20957;-70
2023/08/14 00:17:43;;;;;;;7.60;6.30;;;21.40;39.60;;;;;;5047142;28;20490;-70
2023/08/14 00:20:11;;;;;;;7.97;7.17;;;21.40;39.60;;;;;;5043589;28;20467;-70
2023/08/14 00:22:39;;;;;;;8.13;7.00;;;21.40;39.70;;;;;;5045643;22;20495;-64
2023/08/14 00:25:06;;;;;;;7.50;6.80;;;21.40;39.70;;;;;;5019973;28;20536;-63
2023/08/14 00:27:32;;;;;;;7.07;6.37;;;21.30;39.90;;;;;;5022063;28;20491;-62
2023/08/14 00:29:59;;;;;;;7.00;5.80;;;21.30;39.90;;;;;;5007300;28;20476;-63
2023/08/14 00:32:26;;;;;;;8.20;7.40;;;21.30;39.90;;;;;;5004884;28;20487;-63
2023/08/14 00:34:52;;;;;;;6.37;5.63;;;21.30;39.90;;;;;;5004116;28;20456;-63
2023/08/14 00:37:19;;;;;;;5.70;5.00;;;21.30;39.80;;;;;;5005598;28;20489;-63
2023/08/14 00:39:47;;;;;;;9.63;8.47;;;21.30;40.20;;;;;;5005525;28;20838;-63
2023/08/14 00:42:14;;;;;;;10.57;9.43;;;21.30;40.20;;;;;;5003708;28;20459;-63
2023/08/14 00:44:40;;;;;;;10.40;9.40;;;21.30;40.50;;;;;;5006104;28;20460;-63
2023/08/14 00:47:08;;;;;;;11.93;9.57;;;21.40;40.50;;;;;;5004757;28;21063;-64
2023/08/14 00:49:35;;;;;;;9.90;8.60;;;21.40;40.50;;;;;;5003193;28;20486;-64
2023/08/14 00:52:02;;;;;;;9.50;7.43;;;21.40;40.40;;;;;;5006496;28;20838;-64
2023/08/14 00:54:28;;;;;;;7.70;6.27;;;21.40;40.30;;;;;;5003538;28;20466;-64
2023/08/14 00:56:57;;;;;;;6.97;6.27;;;21.50;40.30;;;;;;5004592;28;20856;-65
2023/08/14 00:59:24;;;;;;;6.80;6.10;;;21.50;40.30;;;;;;5002760;28;20459;-63
2023/08/14 01:01:50;;;;;;;7.50;5.83;;;21.50;40.20;;;;;;5006044;28;20476;-65
2023/08/14 01:04:17;;;;;;;7.60;6.67;;;21.50;40.20;;;;;;5007240;28;20488;-64
2023/08/14 01:06:44;;;;;;;12.53;8.70;;;21.50;40.10;;;;;;5004822;28;20471;-63
2023/08/14 01:09:11;;;;;;;12.90;9.37;;;21.50;40.10;;;;;;5007365;28;20584;-63
2023/08/14 01:11:44;;;;;;;12.17;9.90;;;21.50;40.10;;;;;;5009963;28;20518;-65
2023/08/14 01:14:18;;;;;;;15.13;11.80;;;21.50;40.00;;;;;;5007609;28;20489;-65
2023/08/14 01:16:50;;;;;;;16.53;11.67;;;21.60;40.10;;;;;;5006595;28;20458;-65
2023/08/14 01:19:22;;;;;;;19.00;13.00;;;21.50;40.00;;;;;;5006805;28;20451;-65
2023/08/14 01:22:02;;;;;;;24.60;11.87;;;21.60;40.10;;;;;;5010775;28;20983;-63
2023/08/14 01:24:39;;;;;;;14.30;12.80;;;21.60;40.40;;;;;;5007027;28;20464;-64
2023/08/14 01:27:09;;;;;;;17.97;14.13;;;21.60;40.70;;;;;;5009620;28;20482;-64
2023/08/14 01:29:35;;;;;;;15.57;13.97;;;21.60;40.90;;;;;;5007210;28;20511;-64
2023/08/14 01:32:02;;;;;;;15.63;12.83;;;21.60;40.80;;;;;;5012300;28;20472;-64
2023/08/14 01:34:29;;;;;;;14.63;12.03;;;21.60;40.90;;;;;;5009797;28;20472;-63
2023/08/14 01:37:02;;;;;;;15.67;13.17;;;21.60;41.20;;;;;;5006040;28;20843;-63
2023/08/14 01:39:39;;;;;;;15.40;12.27;;;21.60;41.30;;;;;;5009497;28;20464;-64
2023/08/14 01:42:15;;;;;;;13.07;11.77;;;21.60;41.30;;;;;;5005235;28;20490;-63
2023/08/14 01:44:45;;;;;;;12.20;10.67;;;21.60;41.60;;;;;;5006704;28;20455;-63
2023/08/14 01:47:16;;;;;;;12.90;11.47;;;21.60;41.30;;;;;;5005658;28;20483;-63
2023/08/14 01:49:45;;;;;;;12.47;11.20;;;21.60;41.30;;;;;;5008027;28;20488;-64
2023/08/14 01:52:12;;;;;;;12.93;11.03;;;21.60;41.30;;;;;;5003704;28;20455;-63
2023/08/14 01:54:38;;;;;;;14.13;12.63;;;21.60;41.20;;;;;;5012093;28;20463;-63
2023/08/14 01:57:06;;;;;;;14.30;12.60;;;21.70;41.00;;;;;;5006123;28;20471;-63
2023/08/14 01:59:41;;;;;;;11.47;10.20;;;21.70;41.00;;;;;;5009140;28;21180;-63
2023/08/14 02:02:07;;;;;;;12.90;11.60;;;21.70;41.00;;;;;;5007429;28;20476;-63
2023/08/14 02:04:34;;;;;;;15.30;11.70;;;21.70;40.80;;;;;;5010462;28;20462;-63
2023/08/14 02:07:01;;;;;;;13.40;12.00;;;21.70;40.80;;;;;;5009671;28;20468;-63
2023/08/14 02:09:28;;;;;;;18.00;11.37;;;21.70;40.60;;;;;;5005460;28;20484;-63
2023/08/14 02:11:54;;;;;;;13.63;11.63;;;21.60;40.50;;;;;;5004875;28;20460;-63
2023/08/14 02:14:22;;;;;;;13.53;11.37;;;21.70;40.70;;;;;;5002605;28;20463;-63
2023/08/14 02:16:49;;;;;;;13.00;11.13;;;21.60;40.50;;;;;;5004310;28;20459;-63
2023/08/14 02:19:16;;;;;;;14.30;11.20;;;21.60;40.50;;;;;;5006563;28;20455;-63
2023/08/14 02:21:42;;;;;;;13.10;10.60;;;21.60;40.60;;;;;;5002599;28;20487;-63
2023/08/14 02:24:09;;;;;;;13.27;11.30;;;21.60;40.50;;;;;;5003202;28;20463;-63
2023/08/14 02:26:36;;;;;;;13.63;11.90;;;21.60;40.40;;;;;;5006423;28;20475;-63
2023/08/14 02:29:03;;;;;;;13.00;11.03;;;21.70;40.30;;;;;;5004385;28;20533;-63
2023/08/14 02:31:31;;;;;;;12.50;11.20;;;21.60;40.30;;;;;;5008983;28;20495;-63
2023/08/14 02:33:59;;;;;;;17.80;10.30;;;21.60;40.20;;;;;;5005980;28;20470;-63
2023/08/14 02:36:26;;;;;;;10.40;9.40;;;21.70;39.90;;;;;;5004866;28;20463;-63
2023/08/14 02:38:53;;;;;;;14.37;9.50;;;21.60;39.70;;;;;;5004111;28;21198;-64
2023/08/14 02:41:20;;;;;;;14.20;8.87;;;21.60;39.60;;;;;;5003586;28;20460;-63
2023/08/14 02:43:47;;;;;;;14.50;9.83;;;21.60;39.50;;;;;;5005985;28;20467;-63
2023/08/14 02:46:14;;;;;;;10.73;8.17;;;21.60;39.50;;;;;;5006405;28;20467;-63
2023/08/14 02:48:45;;;;;;;13.13;7.90;;;21.60;39.40;;;;;;4999566;28;20777;-63
2023/08/14 02:51:11;;;;;;;11.57;7.73;;;21.60;39.40;;;;;;5001827;28;20952;-63
2023/08/14 02:53:38;;;;;;;9.27;8.27;;;21.60;39.30;;;;;;5003744;28;20468;-64
2023/08/14 02:56:05;;;;;;;8.90;7.90;;;21.60;39.40;;;;;;5008523;28;20459;-64
2023/08/14 02:58:31;;;;;;;10.93;9.07;;;21.60;39.50;;;;;;5003052;28;20483;-65
2023/08/14 03:00:58;;;;;;;10.80;9.47;;;21.60;39.50;;;;;;5002727;28;20482;-64
2023/08/14 03:03:25;;;;;;;11.53;9.60;;;21.60;39.50;;;;;;5002942;28;20456;-65
2023/08/14 03:05:54;;;;;;;13.07;9.30;;;21.60;39.60;;;;;;5005225;28;20464;-65
2023/08/14 03:08:21;;;;;;;9.83;8.73;;;21.60;39.60;;;;;;5008378;28;20533;-65
2023/08/14 03:10:47;;;;;;;11.23;9.87;;;21.50;39.60;;;;;;5005884;28;20489;-65
2023/08/14 03:13:14;;;;;;;12.20;8.80;;;21.50;40.00;;;;;;5005552;28;20460;-65
2023/08/14 03:15:41;;;;;;;10.93;9.57;;;21.40;40.20;;;;;;5003669;28;20490;-66
2023/08/14 03:18:08;;;;;;;12.87;10.37;;;21.40;40.20;;;;;;5009479;28;20993;-65
2023/08/14 03:20:35;;;;;;;10.63;9.57;;;21.40;40.40;;;;;;5001860;28;20452;-64
2023/08/14 03:23:03;;;;;;;11.00;9.70;;;21.40;40.40;;;;;;5008050;28;20952;-63
2023/08/14 03:25:30;;;;;;;12.17;10.93;;;21.40;40.40;;;;;;5004203;28;20487;-64
2023/08/14 03:27:56;;;;;;;11.83;10.50;;;21.40;40.50;;;;;;5003386;28;20483;-63
2023/08/14 03:30:23;;;;;;;11.60;10.40;;;21.30;40.70;;;;;;5001757;28;20483;-63
2023/08/14 03:32:50;;;;;;;14.67;11.27;;;21.30;40.70;;;;;;5004962;28;20464;-64
2023/08/14 03:35:17;;;;;;;14.10;11.47;;;21.40;40.60;;;;;;4996739;28;20471;-64
2023/08/14 03:37:43;;;;;;;13.90;12.50;;;21.40;40.70;;;;;;5004182;28;20479;-63
2023/08/14 03:40:12;;;;;;;11.33;10.13;;;21.40;40.60;;;;;;5007892;28;20462;-64
2023/08/14 03:42:39;;;;;;;10.60;9.60;;;21.30;40.70;;;;;;5007004;28;20460;-64
2023/08/14 03:45:06;;;;;;;10.80;9.70;;;21.30;40.90;;;;;;5004801;28;20923;-63
2023/08/14 03:47:33;;;;;;;11.47;10.33;;;21.30;40.80;;;;;;5007417;28;20476;-64
2023/08/14 03:50:00;;;;;;;11.03;9.93;;;21.30;40.80;;;;;;5003905;28;20507;-63
2023/08/14 03:52:28;;;;;;;15.83;10.03;;;21.30;40.90;;;;;;5005345;28;20491;-63
2023/08/14 03:54:54;;;;;;;12.10;10.60;;;21.30;41.00;;;;;;5001119;28;20472;-64
2023/08/14 03:57:22;;;;;;;12.37;10.60;;;21.30;41.00;;;;;;5004051;28;20484;-64
2023/08/14 03:59:49;;;;;;;11.83;10.63;;;21.30;41.30;;;;;;5008125;28;21131;-67
2023/08/14 04:02:16;;;;;;;11.93;10.30;;;21.20;41.30;;;;;;5004296;28;20472;-66
2023/08/14 04:04:43;;;;;;;12.07;10.87;;;21.20;41.50;;;;;;5003927;28;20496;-66
2023/08/14 04:07:09;;;;;;;11.50;10.30;;;21.20;42.10;;;;;;5001908;28;20510;-66
2023/08/14 04:09:36;;;;;;;12.57;11.23;;;21.20;41.60;;;;;;5003790;28;21026;-64
2023/08/14 04:12:03;;;;;;;11.27;9.63;;;21.20;41.60;;;;;;5006076;28;20479;-65
2023/08/14 04:14:32;;;;;;;10.93;9.73;;;21.20;41.50;;;;;;4996983;28;20468;-65
2023/08/14 04:16:59;;;;;;;11.43;10.07;;;21.20;41.60;;;;;;5004169;28;20487;-64
2023/08/14 04:19:26;;;;;;;11.30;10.00;;;21.20;41.70;;;;;;4992726;28;20535;-65
2023/08/14 04:21:53;;;;;;;13.10;10.03;;;21.20;41.40;;;;;;5003192;28;21173;-64
2023/08/14 04:24:19;;;;;;;11.70;9.93;;;21.20;41.30;;;;;;4999872;28;20467;-65
2023/08/14 04:26:46;;;;;;;10.60;9.50;;;21.20;41.40;;;;;;4999229;28;20855;-64
2023/08/14 04:29:13;;;;;;;12.13;10.93;;;21.20;41.50;;;;;;5000271;28;20463;-64
2023/08/14 04:31:42;;;;;;;11.80;10.10;;;21.20;41.40;;;;;;5002244;28;20484;-64
2023/08/14 04:34:09;;;;;;;12.77;10.23;;;21.20;41.40;;;;;;4998763;28;20472;-64
2023/08/14 04:36:36;;;;;;;12.03;10.87;;;21.20;41.20;;;;;;5002810;28;21617;-64
2023/08/14 04:39:04;;;;;;;11.57;10.47;;;21.20;41.10;;;;;;5000215;28;20487;-64
2023/08/14 04:41:31;;;;;;;12.03;9.47;;;21.30;41.20;;;;;;5002314;28;20472;-64
2023/08/14 04:43:58;;;;;;;12.43;10.60;;;21.30;41.10;;;;;;4995503;28;20471;-64
2023/08/14 04:46:32;;;;;;;11.87;10.63;;;21.30;41.10;;;;;;5004869;28;20464;-64
2023/08/14 04:49:00;;;;;;;10.00;9.00;;;21.30;41.10;;;;;;5011020;28;20774;-64
2023/08/14 04:51:28;;;;;;;15.00;11.20;;;21.40;40.90;;;;;;4996122;28;20476;-63
2023/08/14 04:53:55;;;;;;;12.17;10.23;;;21.40;40.80;;;;;;5002098;28;21016;-64
2023/08/14 04:56:22;;;;;;;12.40;10.80;;;21.50;40.60;;;;;;4998367;28;20465;-64
2023/08/14 04:58:49;;;;;;;13.70;12.20;;;21.60;40.50;;;;;;5002113;28;20495;-64
2023/08/14 05:01:16;;;;;;;15.27;11.63;;;21.70;40.60;;;;;;5000099;28;21010;-64
2023/08/14 05:03:43;;;;;;;11.93;9.70;;;21.70;40.20;;;;;;4996258;28;20467;-65
2023/08/14 05:06:11;;;;;;;13.50;10.70;;;21.80;40.20;;;;;;5000594;28;20830;-64
2023/08/14 05:08:38;;;;;;;12.67;10.97;;;21.90;40.10;;;;;;5001835;28;20484;-64
2023/08/14 05:11:05;;;;;;;11.43;10.33;;;22.00;39.90;;;;;;5000783;28;20832;-64
2023/08/14 05:13:31;;;;;;;11.20;10.00;;;22.20;39.30;;;;;;5000535;28;20468;-65
2023/08/14 05:15:58;;;;;;;11.70;9.60;;;22.30;39.00;;;;;;4999582;28;21538;-66
2023/08/14 05:18:25;;;;;;;10.70;9.03;;;22.50;38.30;;;;;;4995285;28;20492;-64
2023/08/14 05:20:53;;;;;;;11.13;9.93;;;22.70;38.10;;;;;;4995085;28;20459;-64
2023/08/14 05:23:21;;;;;;;11.50;10.30;;;22.90;37.60;;;;;;4998153;28;20498;-64
2023/08/14 05:25:48;;;;;;;13.23;10.23;;;22.90;37.40;;;;;;4998687;28;20479;-64
2023/08/14 05:28:14;;;;;;;12.13;10.13;;;23.20;37.10;;;;;;5003675;28;20995;-65
2023/08/14 05:30:43;;;;;;;12.70;9.37;;;23.70;35.80;;;;;;4997023;28;20483;-64
2023/08/14 05:33:10;;;;;;;11.30;10.10;;;24.20;34.20;;;;;;5003033;28;20492;-66
2023/08/14 05:35:37;;;;;;;11.33;9.40;;;24.50;32.80;;;;;;5000098;28;20478;-66
2023/08/14 05:38:04;;;;;;;9.83;8.83;;;24.60;31.10;;;;;;5002594;28;21239;-66
2023/08/14 05:40:32;;;;;;;10.77;8.87;;;24.70;30.60;;;;;;5002202;28;20468;-66
2023/08/14 05:43:07;;;;;;;13.93;9.73;;;24.50;31.30;;;;;;4997495;28;20494;-66
2023/08/14 05:45:34;;;;;;;11.83;9.10;;;24.60;31.30;;;;;;5003380;28;20614;-65
2023/08/14 05:48:01;;;;;;;10.80;8.50;;;25.20;29.40;;;;;;5007082;28;20483;-66
2023/08/14 05:50:28;;;;;;;10.30;8.13;;;25.20;28.50;;;;;;5009503;28;20852;-65
2023/08/14 05:52:56;;;;;;;13.03;8.30;;;25.00;29.20;;;;;;5007730;28;21262;-65
2023/08/14 05:55:23;;;;;;;10.40;8.40;;;24.70;30.00;;;;;;5007091;28;20469;-67
2023/08/14 05:57:51;;;;;;;10.63;8.90;;;24.50;30.70;;;;;;5008484;28;20488;-66
2023/08/14 06:00:19;;;;;;;9.30;8.30;;;24.30;31.50;;;;;;5001497;28;20467;-66
2023/08/14 06:02:46;;;;;;;9.47;8.47;;;24.20;31.90;;;;;;5000775;28;21089;-67
2023/08/14 06:05:13;;;;;;;10.73;9.63;;;24.20;32.10;;;;;;5004554;28;20507;-66
2023/08/14 06:07:40;;;;;;;11.70;9.57;;;24.20;32.10;;;;;;5005865;28;21193;-67
2023/08/14 06:10:07;;;;;;;9.33;8.27;;;24.30;32.20;;;;;;5004425;28;20475;-67
2023/08/14 06:12:34;;;;;;;11.73;9.20;;;24.30;32.40;;;;;;5005097;28;20469;-67
2023/08/14 06:15:03;;;;;;;10.90;9.13;;;24.30;32.50;;;;;;5001473;28;20468;-67
2023/08/14 06:17:32;;;;;;;10.33;8.77;;;24.30;32.50;;;;;;5005119;28;20474;-66
2023/08/14 06:19:58;;;;;;;11.13;9.03;;;24.40;32.50;;;;;;5003812;28;20472;-66
2023/08/14 06:22:25;;;;;;;12.43;10.23;;;24.40;32.40;;;;;;5002535;28;20471;-65
2023/08/14 06:24:52;;;;;;;11.83;9.20;;;24.50;32.00;;;;;;5002483;28;20460;-66
2023/08/14 06:27:19;;;;;;;10.07;8.93;;;24.60;31.50;;;;;;5000741;28;20483;-68
2023/08/14 06:29:45;;;;;;;12.27;8.80;;;24.70;31.10;;;;;;5005126;28;20483;-68
2023/08/14 06:32:13;;;;;;;10.03;8.63;;;24.70;31.00;;;;;;5006869;28;20854;-66
2023/08/14 06:34:40;;;;;;;11.60;9.23;;;24.70;31.00;;;;;;5001352;28;20478;-67
2023/08/14 06:37:07;;;;;;;10.37;9.07;;;24.80;31.20;;;;;;5007828;28;20487;-69
2023/08/14 06:39:34;;;;;;;9.90;8.83;;;24.80;31.40;;;;;;5004388;28;20475;-66
2023/08/14 06:42:00;;;;;;;9.20;8.03;;;25.60;30.80;;;;;;5001817;28;20460;-66
2023/08/14 06:44:27;;;;;;;8.17;7.27;;;27.80;25.60;;;;;;5003453;28;20831;-66
2023/08/14 06:46:54;;;;;;;8.73;7.40;;;29.00;20.40;;;;;;5008061;28;20460;-66
2023/08/14 06:49:22;;;;;;;9.17;7.67;;;29.20;18.20;;;;;;5009522;28;20456;-66
2023/08/14 06:51:48;;;;;;;9.10;7.60;;;30.20;16.20;;;;;;5008296;28;20475;-66
2023/08/14 06:54:15;;;;;;;10.20;8.23;;;30.10;14.70;;;;;;5005449;28;20857;-66
2023/08/14 06:56:42;;;;;;;10.87;8.67;;;30.20;14.80;;;;;;5007613;28;20471;-66
2023/08/14 06:59:09;;;;;;;9.00;7.33;;;31.50;12.30;;;;;;5003347;28;20484;-66
2023/08/14 07:01:35;;;;;;;8.50;6.60;;;32.90;9.80;;;;;;5002323;28;21000;-66
2023/08/14 07:04:02;;;;;;;8.80;6.40;;;34.90;5.90;;;;;;5000758;28;20957;-66
2023/08/14 07:06:30;;;;;;;9.03;7.10;;;37.30;1.20;;;;;;4998167;28;20961;-67
2023/08/14 07:08:57;;;;;;;9.80;6.60;;;39.40;1.00;;;;;;5005210;28;20488;-67
2023/08/14 07:11:23;;;;;;;7.43;5.50;;;41.00;1.00;;;;;;5000442;28;20491;-68
2023/08/14 07:13:50;;;;;;;5.77;5.03;;;42.50;1.00;;;;;;5003685;28;21001;-67
2023/08/14 07:16:17;;;;;;;7.17;5.77;;;43.50;1.00;;;;;;4999297;28;20480;-66
2023/08/14 07:18:43;;;;;;;9.77;6.17;;;44.30;1.00;;;;;;5041403;23;20505;-70
2023/08/14 07:21:10;;;;;;;8.50;5.80;;;45.10;1.00;;;;;;5042587;28;20454;-70
2023/08/14 07:23:38;;;;;;;7.90;5.57;;;46.10;1.00;;;;;;5046834;28;20470;-70
2023/08/14 07:26:11;;;;;;;7.90;4.97;;;46.80;1.00;;;;;;5041882;28;21041;-71
2023/08/14 07:28:39;;;;;;;5.83;4.80;;;47.20;1.00;;;;;;5032295;28;20479;-70
2023/08/14 07:31:06;;;;;;;8.97;5.10;;;47.50;1.00;;;;;;5022710;28;21060;-70
2023/08/14 07:33:32;;;;;;;6.07;4.33;;;48.00;1.00;;;;;;5023071;28;20455;-71
2023/08/14 07:36:00;;;;;;;6.33;4.20;;;48.40;1.00;;;;;;5026516;28;20841;-71
2023/08/14 07:38:27;;;;;;;6.03;4.20;;;48.80;1.00;;;;;;5023750;28;20494;-70
2023/08/14 07:40:55;;;;;;;6.80;4.77;;;48.70;1.00;;;;;;5025724;28;20467;-71
2023/08/14 07:43:22;;;;;;;4.50;3.93;;;49.00;1.00;;;;;;5023661;28;20459;-71
2023/08/14 07:45:49;;;;;;;5.90;4.13;;;49.10;1.00;;;;;;5022568;28;20474;-71
2023/08/14 07:48:16;;;;;;;4.80;3.60;;;49.30;1.00;;;;;;5023647;28;20482;-71
2023/08/14 07:50:43;;;;;;;5.40;3.70;;;49.40;1.00;;;;;;5022089;28;20863;-70
2023/08/14 07:53:10;;;;;;;5.70;3.33;;;49.50;1.00;;;;;;5796084;23;20820;-66
2023/08/14 07:55:37;;;;;;;7.90;3.27;;;49.80;1.00;;;;;;5009824;28;20471;-68
2023/08/14 07:58:05;;;;;;;4.80;3.43;;;50.10;1.00;;;;;;5022608;28;21064;-67
2023/08/14 08:00:32;;;;;;;4.83;2.80;;;50.40;1.00;;;;;;5021376;28;20454;-66
2023/08/14 08:02:58;;;;;;;4.93;3.20;;;50.40;1.00;;;;;;5024691;28;20544;-68
2023/08/14 08:05:25;;;;;;;7.30;3.23;;;50.70;1.00;;;;;;5024017;28;20467;-68
2023/08/14 08:07:52;;;;;;;5.83;3.37;;;50.60;1.00;;;;;;5024370;28;20462;-67
2023/08/14 08:10:19;;;;;;;5.13;3.57;;;50.60;1.00;;;;;;5020192;28;20462;-66
2023/08/14 08:12:45;;;;;;;5.50;3.47;;;50.60;1.00;;;;;;5025650;28;20501;-67
2023/08/14 08:15:13;;;;;;;4.47;3.00;;;51.00;1.00;;;;;;5024319;28;20841;-68
2023/08/14 08:17:40;;;;;;;4.13;3.10;;;51.60;1.00;;;;;;5020871;28;20458;-67
2023/08/14 08:20:09;;;;;;;4.17;2.73;;;52.30;1.00;;;;;;5022085;28;20470;-68
2023/08/14 08:22:35;;;;;;;3.40;2.30;;;52.80;1.00;;;;;;5019524;28;21145;-67
2023/08/14 08:25:03;;;;;;;3.20;2.10;;;53.00;1.00;;;;;;5019702;28;20471;-68
2023/08/14 08:27:29;;;;;;;5.20;2.50;;;53.60;1.00;;;;;;5019771;28;20462;-68
2023/08/14 08:29:56;;;;;;;3.53;2.30;;;53.90;1.00;;;;;;5020589;28;20496;-68
2023/08/14 08:32:24;;;;;;;4.73;2.23;;;54.20;1.00;;;;;;5017932;28;20502;-66
2023/08/14 08:34:51;;;;;;;3.90;2.30;;;54.10;1.00;;;;;;5023753;28;20500;-69
2023/08/14 08:37:19;;;;;;;4.57;2.40;;;54.30;1.00;;;;;;5024641;28;21008;-68
2023/08/14 08:39:45;;;;;;;3.20;1.70;;;54.40;1.00;;;;;;5024212;28;20469;-68
2023/08/14 08:42:13;;;;;;;4.77;2.70;;;54.40;1.00;;;;;;5025924;28;20458;-68
2023/08/14 08:44:45;;;;;;;2.93;1.70;;;54.40;1.00;;;;;;5023444;28;20482;-68
2023/08/14 08:47:15;;;;;;;4.57;2.57;;;54.30;1.00;;;;;;5021630;28;20958;-68
2023/08/14 08:49:43;;;;;;;3.10;2.00;;;54.10;1.00;;;;;;5019513;28;20865;-67
2023/08/14 08:52:11;;;;;;;4.13;2.03;;;54.30;1.00;;;;;;5022054;28;20486;-68
2023/08/14 08:54:38;;;;;;;3.70;2.20;;;54.90;1.00;;;;;;5024844;28;20490;-67
2023/08/14 08:57:05;;;;;;;4.00;2.07;;;55.00;1.00;;;;;;5021776;28;20470;-67
2023/08/14 08:59:33;;;;;;;4.60;2.50;;;55.10;1.00;;;;;;5022423;28;20478;-69
2023/08/14 09:02:00;;;;;;;3.60;2.20;;;55.20;1.00;;;;;;5020496;28;20490;-67
2023/08/14 09:04:27;;;;;;;3.30;2.00;;;55.40;1.00;;;;;;5021683;28;21174;-68
2023/08/14 09:06:56;;;;;;;5.97;2.43;;;55.70;1.00;;;;;;5022332;28;20477;-67
2023/08/14 09:09:23;;;;;;;4.30;1.90;;;54.90;1.00;;;;;;5026033;28;20462;-69
2023/08/14 09:11:49;;;;;;;4.47;2.17;;;54.30;1.00;;;;;;5026845;28;20561;-69
2023/08/14 09:14:17;;;;;;;3.27;2.03;;;53.90;1.00;;;;;;5024362;28;20493;-68
2023/08/14 09:16:45;;;;;;;3.80;1.73;;;53.70;1.00;;;;;;5020612;28;20473;-68
2023/08/14 09:19:14;;;;;;;3.30;1.80;;;53.80;1.00;;;;;;5021938;28;20466;-67
2023/08/14 09:21:44;;;;;;;4.30;1.90;;;53.70;1.00;;;;;;5023447;28;20465;-67
2023/08/14 09:24:14;;;;;;;4.33;1.77;;;52.90;1.00;;;;;;5025146;28;21005;-67
2023/08/14 09:26:43;;;;;;;3.83;1.90;;;52.00;1.00;;;;;;5024179;28;20498;-65
2023/08/14 09:29:10;;;;;;;4.00;1.63;;;52.00;1.00;;;;;;5027183;28;20457;-67
2023/08/14 09:31:36;;;;;;;3.00;1.60;;;52.70;1.00;;;;;;5025366;28;20489;-67
2023/08/14 09:34:03;;;;;;;3.77;2.27;;;52.30;1.00;;;;;;5021541;28;20486;-68
2023/08/14 09:36:34;;;;;;;4.00;1.93;;;50.60;1.00;;;;;;5024665;28;20474;-66
2023/08/14 09:39:02;;;;;;;3.27;1.90;;;48.80;1.00;;;;;;5029617;28;20466;-67
2023/08/14 09:41:31;;;;;;;3.77;1.57;;;47.40;1.00;;;;;;5026477;28;20832;-66
2023/08/14 09:44:00;;;;;;;4.27;2.10;;;46.10;1.00;;;;;;5027326;28;20560;-66
2023/08/14 09:46:28;;;;;;;3.80;2.13;;;45.20;1.00;;;;;;5027615;28;20463;-65
2023/08/14 09:48:55;;;;;;;3.20;1.90;;;44.40;1.00;;;;;;5028222;28;20458;-65
2023/08/14 09:51:22;;;;;;;3.90;2.23;;;44.30;1.00;;;;;;5020907;28;20487;-66
2023/08/14 09:53:51;;;;;;;3.43;1.90;;;44.60;1.00;;;;;;5025229;28;20978;-67
2023/08/14 09:56:18;;;;;;;3.80;1.90;;;45.50;1.00;;;;;;5026854;28;20538;-66
2023/08/14 09:58:48;;;;;;;5.03;2.70;;;46.60;1.00;;;;;;5026500;28;20466;-67
2023/08/14 10:01:16;;;;;;;3.90;2.23;;;46.80;1.00;;;;;;5027030;28;20489;-67
2023/08/14 10:03:46;;;;;;;4.40;2.20;;;47.00;1.00;;;;;;5025226;28;20489;-67
2023/08/14 10:06:13;;;;;;;6.50;2.57;;;47.40;1.00;;;;;;5021929;28;20466;-66
2023/08/14 10:08:44;;;;;;;4.40;2.23;;;47.90;1.00;;;;;;5027088;28;20462;-66
2023/08/14 10:11:12;;;;;;;4.10;2.03;;;46.90;1.00;;;;;;5022080;28;20471;-67
2023/08/14 10:13:44;;;;;;;4.50;2.07;;;45.90;1.00;;;;;;5022125;28;20594;-66
2023/08/14 10:16:17;;;;;;;4.90;2.13;;;46.40;1.00;;;;;;5025416;28;20486;-66
2023/08/14 10:18:47;;;;;;;3.43;1.60;;;46.60;1.00;;;;;;5028433;28;20463;-66
2023/08/14 10:21:17;;;;;;;4.13;1.93;;;47.80;1.00;;;;;;5025896;28;20459;-66
2023/08/14 10:23:45;;;;;;;5.73;2.53;;;48.20;1.00;;;;;;5026282;28;20503;-67
2023/08/14 10:26:13;;;;;;;3.67;2.20;;;48.10;1.00;;;;;;5030191;28;20470;-67
2023/08/14 10:28:40;;;;;;;3.77;2.20;;;47.20;1.00;;;;;;5027664;28;20463;-67
2023/08/14 10:31:09;;;;;;;3.63;1.87;;;46.10;1.00;;;;;;5023627;28;20482;-67
2023/08/14 10:33:38;;;;;;;4.43;1.90;;;45.40;1.00;;;;;;5026094;28;20994;-66
2023/08/14 10:36:05;;;;;;;3.60;2.07;;;44.30;1.00;;;;;;5025287;28;20581;-66
2023/08/14 10:38:41;;;;;;;4.83;2.17;;;43.40;1.00;;;;;;5027678;28;20584;-68
2023/08/14 10:41:09;;;;;;;5.00;2.53;;;42.30;1.00;;;;;;5026630;28;20929;-66
2023/08/14 10:43:36;;;;;;;5.23;2.57;;;41.20;1.00;;;;;;5027944;28;20475;-66
2023/08/14 10:46:09;;;;;;;4.30;2.13;;;40.30;1.00;;;;;;5021939;28;20470;-66
2023/08/14 10:48:38;;;;;;;5.80;2.40;;;39.30;1.00;;;;;;5024288;28;20516;-66
2023/08/14 10:51:08;;;;;;;5.20;2.73;;;38.40;1.00;;;;;;5025415;28;20455;-66
2023/08/14 10:53:35;;;;;;;4.93;2.30;;;37.80;1.00;;;;;;5025388;28;20507;-67
2023/08/14 10:56:02;;;;;;;4.87;2.80;;;37.50;1.00;;;;;;5027035;28;20959;-66
2023/08/14 10:58:47;;;;;;;5.80;2.30;;;37.20;1.00;;;;;;5025430;28;20470;-66
2023/08/14 11:01:14;;;;;;;4.10;2.53;;;36.80;1.00;;;;;;5020906;28;20520;-67
2023/08/14 11:03:59;;;;;;;5.53;2.63;;;36.40;1.00;;;;;;5024711;28;20494;-66
2023/08/14 11:06:26;;;;;;;6.60;2.47;;;36.00;1.00;;;;;;5016120;28;20459;-68
2023/08/14 11:08:59;;;;;;;4.90;2.67;;;35.70;1.00;;;;;;5027638;28;20935;-64
2023/08/14 11:11:26;;;;;;;5.70;2.83;;;35.40;1.00;;;;;;5024547;28;20518;-66
2023/08/14 11:13:53;;;;;;;4.83;2.50;;;35.10;1.00;;;;;;5026221;28;20490;-65
2023/08/14 11:16:20;;;;;;;4.60;2.33;;;34.70;1.00;;;;;;5025338;28;20463;-67
2023/08/14 11:18:48;;;;;;;5.30;2.57;;;34.50;1.00;;;;;;5028185;28;20455;-68
2023/08/14 11:21:16;;;;;;;4.73;2.87;;;34.30;1.00;;;;;;5022183;28;20737;-67
2023/08/14 11:23:42;;;;;;;5.60;2.53;;;33.90;1.00;;;;;;5021133;28;20497;-68
2023/08/14 11:26:09;;;;;;;5.17;2.60;;;33.60;1.00;;;;;;5025384;28;20467;-68
2023/08/14 11:28:36;;;;;;;6.73;3.00;;;33.30;1.00;;;;;;5026917;28;20451;-67
2023/08/14 11:31:03;;;;;;;4.00;2.20;;;33.00;1.00;;;;;;5018247;28;20483;-67
2023/08/14 11:33:32;;;;;;;4.57;2.80;;;32.80;1.00;;;;;;5023727;28;21551;-68
2023/08/14 11:35:58;;;;;;;6.43;2.87;;;32.60;1.00;;;;;;5026088;28;20556;-68
2023/08/14 11:38:27;;;;;;;4.50;2.80;;;32.50;1.00;;;;;;5024936;28;20475;-68
2023/08/14 11:40:53;;;;;;;5.50;3.20;;;32.40;1.00;;;;;;5024344;28;20466;-67
2023/08/14 11:43:21;;;;;;;5.03;3.20;;;32.30;1.00;;;;;;5018149;28;20483;-65
2023/08/14 11:45:48;;;;;;;9.90;2.70;;;32.30;1.00;;;;;;5019996;28;20471;-65
2023/08/14 11:48:15;;;;;;;5.07;3.20;;;32.20;1.00;;;;;;5023994;28;20560;-66
2023/08/14 11:50:47;;;;;;;4.80;3.00;;;32.10;1.00;;;;;;5020012;28;20497;-65
2023/08/14 11:53:14;;;;;;;5.87;3.20;;;32.10;1.30;;;;;;5021983;28;20584;-66
2023/08/14 11:55:42;;;;;;;5.77;2.97;;;32.00;2.20;;;;;;5013813;28;20459;-66
2023/08/14 11:58:08;;;;;;;4.70;2.90;;;31.90;1.70;;;;;;5016854;28;20470;-65
2023/08/14 12:00:35;;;;;;;4.50;2.70;;;31.80;1.90;;;;;;5021085;28;20843;-66
2023/08/14 12:03:02;;;;;;;5.27;2.80;;;31.80;1.30;;;;;;5018776;28;20482;-65
2023/08/14 12:05:29;;;;;;;5.07;2.93;;;31.60;1.10;;;;;;5017455;28;20471;-67
2023/08/14 12:08:00;;;;;;;6.10;3.40;;;31.50;1.20;;;;;;5019933;28;20463;-66
2023/08/14 12:10:31;;;;;;;5.67;3.20;;;31.50;1.70;;;;;;5020807;28;20470;-65
2023/08/14 12:12:59;;;;;;;4.83;2.90;;;31.50;2.10;;;;;;5019759;28;20500;-66
2023/08/14 12:15:28;;;;;;;4.70;2.50;;;31.30;1.60;;;;;;5023027;28;20465;-66
2023/08/14 12:17:54;;;;;;;5.27;2.83;;;31.20;1.80;;;;;;5019973;28;20934;-66
2023/08/14 12:20:22;;;;;;;7.93;2.97;;;31.20;1.60;;;;;;5016540;28;20462;-65
2023/08/14 12:22:49;;;;;;;6.17;2.83;;;31.20;1.40;;;;;;5019488;28;20471;-65
2023/08/14 12:25:20;;;;;;;4.70;3.13;;;31.10;2.20;;;;;;5025196;28;20466;-66
2023/08/14 12:27:47;;;;;;;5.53;3.40;;;31.10;3.20;;;;;;5024046;28;20856;-66
2023/08/14 12:30:15;;;;;;;5.30;3.13;;;31.20;3.20;;;;;;5020977;28;20971;-66
2023/08/14 12:32:47;;;;;;;5.07;3.33;;;31.10;2.20;;;;;;5024662;28;20491;-65
2023/08/14 12:35:14;;;;;;;5.00;3.10;;;31.10;2.30;;;;;;5024707;28;20466;-64
2023/08/14 12:37:40;;;;;;;4.83;2.50;;;31.00;2.10;;;;;;5024475;28;20466;-65
2023/08/14 12:40:10;;;;;;;7.30;3.30;;;30.90;1.90;;;;;;5024313;28;20467;-66
2023/08/14 12:42:37;;;;;;;7.20;3.53;;;30.90;2.20;;;;;;5020280;28;20509;-66
2023/08/14 12:45:05;;;;;;;8.13;3.40;;;30.80;2.00;;;;;;5019866;28;20569;-65
2023/08/14 12:47:33;;;;;;;4.53;2.87;;;30.80;1.70;;;;;;5020591;28;20494;-67